createdAt,value
2023-12-09T00:01:11.693Z,93.98
2023-12-09T00:11:14.592Z,94.03
2023-12-09T00:21:19.077Z,94.04
2023-12-09T00:31:21.916Z,93.51
2023-12-09T00:41:25.869Z,93.59
2023-12-09T00:51:28.571Z,94.07
2023-12-09T01:01:34.640Z,93.70
2023-12-09T01:11:37.319Z,94.02
2023-12-09T01:21:41.302Z,93.92
2023-12-09T01:31:43.901Z,94.03
2023-12-09T01:41:47.954Z,93.87
2023-12-09T01:51:50.772Z,94.23
2023-12-09T02:01:55.223Z,93.77
2023-12-09T02:12:07.473Z,93.82
2023-12-09T02:22:11.577Z,93.74
2023-12-09T02:32:18.254Z,94.30
2023-12-09T02:42:21.096Z,94.25
2023-12-09T02:52:25.233Z,94.55
2023-12-09T03:02:28.267Z,94.12
2023-12-09T03:12:32.677Z,94.50
2023-12-09T03:22:35.275Z,94.22
2023-12-09T03:32:41.253Z,94.05
2023-12-09T03:42:43.875Z,95.07
2023-12-09T03:52:47.865Z,94.89
2023-12-09T04:02:50.474Z,94.76
2023-12-09T04:12:54.385Z,94.69
2023-12-09T04:22:56.989Z,94.93
2023-12-09T04:33:01.228Z,94.71
2023-12-09T04:43:04.855Z,95.24
2023-12-09T04:53:08.900Z,95.35
2023-12-09T05:03:11.925Z,95.35
2023-12-09T05:13:15.919Z,95.38
2023-12-09T05:23:18.478Z,94.87
2023-12-09T05:33:22.552Z,95.21
2023-12-09T05:43:25.284Z,94.79
2023-12-09T05:53:29.317Z,94.19
2023-12-09T06:03:32.041Z,94.71
2023-12-09T06:13:36.031Z,94.39
2023-12-09T06:23:39.124Z,94.72
2023-12-09T06:33:43.186Z,94.20
2023-12-09T06:43:45.909Z,94.11
2023-12-09T06:53:49.807Z,93.99
2023-12-09T07:03:55.828Z,94.74
2023-12-09T07:13:59.786Z,94.20
2023-12-09T07:24:02.442Z,94.75
2023-12-09T07:34:06.589Z,94.29
2023-12-09T07:44:09.258Z,94.42
2023-12-09T07:54:13.169Z,94.48
2023-12-09T08:04:16.029Z,94.31
2023-12-09T08:14:19.997Z,94.09
2023-12-09T08:24:22.876Z,93.90
2023-12-09T08:34:26.893Z,93.60
2023-12-09T08:44:29.585Z,93.91
2023-12-09T08:54:33.560Z,92.83
2023-12-09T09:04:36.165Z,93.03
2023-12-09T09:14:40.143Z,93.11
2023-12-09T09:24:42.866Z,92.76
2023-12-09T09:34:47.031Z,93.15
2023-12-09T09:44:58.135Z,92.62
2023-12-09T09:55:03.671Z,92.23
2023-12-09T10:05:06.642Z,91.38
2023-12-09T10:15:12.239Z,91.38
2023-12-09T10:25:22.190Z,91.00
2023-12-09T10:35:26.113Z,91.91
2023-12-09T10:45:30.417Z,91.93
2023-12-09T10:55:34.521Z,91.73
2023-12-09T11:05:45.433Z,91.12
2023-12-09T11:15:49.471Z,90.24
2023-12-09T11:25:52.267Z,89.17
2023-12-09T11:35:58.219Z,87.47
2023-12-09T11:46:00.811Z,86.75
2023-12-09T11:56:06.268Z,85.62
2023-12-09T12:06:09.432Z,82.68
2023-12-09T12:16:14.215Z,82.22
2023-12-09T12:26:16.806Z,80.85
2023-12-09T12:36:20.867Z,79.66
2023-12-09T12:46:23.533Z,81.36
2023-12-09T12:56:28.056Z,80.85
2023-12-09T13:06:30.852Z,80.17
2023-12-09T13:16:34.962Z,82.18
2023-12-09T13:26:45.433Z,81.92
2023-12-09T13:36:48.122Z,82.80
2023-12-09T13:46:52.175Z,83.01
2023-12-09T13:56:54.773Z,83.57
2023-12-09T14:06:58.693Z,83.45
2023-12-09T14:17:01.818Z,83.35
2023-12-09T14:27:06.214Z,85.28
2023-12-09T14:37:08.889Z,84.94
2023-12-09T14:47:14.241Z,86.15
2023-12-09T14:57:16.865Z,87.31
2023-12-09T15:07:20.893Z,87.27
2023-12-09T15:17:23.796Z,89.27
2023-12-09T15:27:29.163Z,89.85
2023-12-09T15:37:31.856Z,91.57
2023-12-09T15:47:35.855Z,91.00
2023-12-09T15:57:38.663Z,91.30
2023-12-09T16:07:44.196Z,92.15
2023-12-09T16:17:48.145Z,93.17
2023-12-09T16:27:52.337Z,92.58
2023-12-09T16:37:55.311Z,92.98
2023-12-09T16:47:59.305Z,92.58
2023-12-09T16:58:02.068Z,93.26
2023-12-09T17:08:06.489Z,94.13
2023-12-09T17:18:10.374Z,94.16
2023-12-09T17:28:14.477Z,94.60
2023-12-09T17:38:17.087Z,94.05
2023-12-09T17:48:21.754Z,94.28
2023-12-09T17:58:24.474Z,94.43
2023-12-09T18:08:29.552Z,93.97
2023-12-09T18:18:32.347Z,94.97
2023-12-09T18:28:38.604Z,94.71
2023-12-09T18:38:41.246Z,93.56
2023-12-09T18:48:45.680Z,94.36
2023-12-09T18:58:49.085Z,94.30
2023-12-09T19:08:53.049Z,94.64
2023-12-09T19:18:55.706Z,94.78
2023-12-09T19:29:02.401Z,94.63
2023-12-09T19:39:05.781Z,94.66
2023-12-09T19:49:09.906Z,94.61
2023-12-09T19:59:12.695Z,95.33
2023-12-09T20:09:16.771Z,95.06
2023-12-09T20:19:20.948Z,94.78
2023-12-09T20:29:25.963Z,94.68
2023-12-09T20:39:28.629Z,96.89
2023-12-09T20:49:32.600Z,93.92
2023-12-09T20:59:35.190Z,93.27
2023-12-09T21:09:40.323Z,93.67
2023-12-09T21:19:44.149Z,93.63
2023-12-09T21:29:48.095Z,94.12
2023-12-09T21:39:51.047Z,93.77
2023-12-09T21:49:55.597Z,93.34
2023-12-09T21:59:58.222Z,94.69
2023-12-09T22:10:02.110Z,95.19
2023-12-09T22:20:05.776Z,95.23
2023-12-09T22:30:11.054Z,95.17
2023-12-09T22:40:14.631Z,94.91
2023-12-09T22:50:18.842Z,94.80
2023-12-09T23:00:33.126Z,95.10
2023-12-09T23:10:37.330Z,95.39
2023-12-09T23:20:39.910Z,95.11
2023-12-09T23:30:43.869Z,93.36
2023-12-09T23:40:46.490Z,92.42
2023-12-09T23:50:50.461Z,91.68
